Flight Track Log - Related Links

Times and Time Zones

All times are in EDT time to prevent confusion due to time zone crossing. See the SKW5640 flight status page for this flight to view local times or setup timezone preferences in your user account.

Time Position Orientation Groundspeed Altitude Reporting Facility
EDT Latitude Longitude Course Direction KTS MPH feet Rate Location/Type
Sat 07:25:03 AM 32.9167 -97.0500 294° West 127 146 1,200  Level Dallas / Fort Worth TRACON
Sat 07:26:04 AM 32.9667 -97.0500 360° North 207 238 2,900 1,905 Climbing Dallas / Fort Worth TRACON
Sat 07:27:09 AM 33.0333 -97.0667 348° North 260 299 5,200 2,256 Climbing Dallas / Fort Worth TRACON
Sat 07:28:00 AM 32.8631 -97.4651 293° West  Level FlightAware Approximate
Sat 07:28:09 AM 33.0333 -97.1500 270° West 276 318 7,600  Level Dallas / Fort Worth TRACON
Sat 07:29:00 AM 32.9146 -97.5958 301° West  Level FlightAware Approximate
Sat 07:29:25 AM 33.0233 -97.2722 264° West 286 329 10,500  Level Fort Worth Center
Sat 07:30:00 AM 32.9645 -97.7275 294° West  Level FlightAware Approximate
Sat 07:30:25 AM 33.0128 -97.3739 263° West 308 354 12,100  Level Fort Worth Center
Sat 07:31:25 AM 33.0025 -97.4853 264° West 333 383 13,600 1,750 Climbing Fort Worth Center
Sat 07:32:25 AM 32.9919 -97.6017 264° West 351 404 15,600 1,900 Climbing Fort Worth Center
Sat 07:33:25 AM 32.9811 -97.7206 264° West 363 418 17,400 1,750 Climbing Fort Worth Center
Sat 07:34:25 AM 32.9956 -97.8247 279° West 363 418 19,100 1,800 Climbing Fort Worth Center
Sat 07:35:25 AM 33.0139 -97.9558 280° West 368 423 21,000 1,550 Climbing Fort Worth Center
Sat 07:36:25 AM 33.0319 -98.0628 281° West 370 426 22,200 1,200 Climbing Fort Worth Center
Sat 07:37:25 AM 33.0522 -98.1992 280° West 375 432 23,400 1,200 Climbing Fort Worth Center
Sat 07:38:25 AM 33.0703 -98.3108 281° West 385 443 24,600 1,250 Climbing Fort Worth Center
Sat 07:39:25 AM 33.0919 -98.4525 280° West 391 450 25,900 1,100 Climbing Fort Worth Center
Sat 07:40:25 AM 33.1097 -98.5642 281° West 391 450 26,800 950 Climbing Fort Worth Center
Sat 07:41:25 AM 33.1272 -98.6958 279° West 396 456 27,800 900 Climbing Fort Worth Center
Sat 07:42:25 AM 33.1489 -98.8278 281° West 396 456 28,600 800 Climbing Fort Worth Center
Sat 07:43:25 AM 33.1683 -98.9594 280° West 403 464 29,400 900 Climbing Fort Worth Center
Sat 07:44:25 AM 33.1894 -99.0964 280° West 410 472 30,400 1,000 Climbing Fort Worth Center
Sat 07:45:25 AM 33.2083 -99.2308 280° West 410 472 31,400 1,000 Climbing Fort Worth Center
Sat 07:46:25 AM 33.2272 -99.3628 280° West 410 472 32,400 1,000 Climbing Fort Worth Center
Sat 07:47:25 AM 33.2461 -99.4950 280° West 410 472 33,400 1,000 Climbing Fort Worth Center
Sat 07:48:25 AM 33.2919 -99.6178 294° West 405 466 34,400 950 Climbing Fort Worth Center
Sat 07:49:25 AM 33.3653 -99.7242 310° West 405 466 35,300 800 Climbing Fort Worth Center
Sat 07:50:25 AM 33.4364 -99.8281 309° West 405 466 36,000 350 Climbing Fort Worth Center
Sat 07:51:25 AM 33.5092 -99.9347 309° West 410 472 36,000  Level Fort Worth Center
Sat 07:52:25 AM 33.5803 -100.0389 309° West 410 472 36,000  Level Fort Worth Center
Sat 07:53:25 AM 33.6531 -100.1483 309° West 410 472 36,000  Level Fort Worth Center
Sat 07:54:25 AM 33.7278 -100.2581 309° West 416 479 36,000  Level Fort Worth Center
Sat 07:55:25 AM 33.7942 -100.3678 306° West 416 479 36,000  Level Fort Worth Center
Sat 07:56:25 AM 33.8517 -100.4947 299° West 421 484 36,000  Level Fort Worth Center
Sat 07:57:25 AM 33.9047 -100.6167 298° West 421 484 36,000  Level Fort Worth Center
Sat 07:58:25 AM 33.9600 -100.7414 298° West 421 484 36,000  Level Fort Worth Center
Sat 07:59:25 AM 34.0150 -100.8639 298° West 416 479 36,000  Level Fort Worth Center
Sat 08:00:25 AM 34.0758 -101.0017 298° West 421 484 36,000  Level Fort Worth Center
Sat 08:01:25 AM 34.1328 -101.1269 299° West 427 491 36,000  Level Fort Worth Center
Sat 08:02:25 AM 34.1817 -101.2369 298° West 427 491 36,000  Level Fort Worth Center
Sat 08:03:25 AM 34.2400 -101.3753 297° West 428 493 36,000  Level Fort Worth Center
Sat 08:05:33 AM 34.3478 -101.6197 298° West 420 483 36,000  Level Albuquerque Center
Sat 08:06:34 AM 34.4028 -101.7475 298° West 423 487 36,000  Level Albuquerque Center
Sat 08:07:34 AM 34.4575 -101.8753 297° West 425 489 36,000  Level Albuquerque Center
Sat 08:08:34 AM 34.5131 -102.0039 298° West 428 493 36,000  Level Albuquerque Center
Sat 08:09:34 AM 34.5678 -102.1322 297° West 428 493 36,000  Level Albuquerque Center
Sat 08:10:35 AM 34.6228 -102.2589 298° West 425 489 36,000  Level Albuquerque Center
Sat 08:11:35 AM 34.6764 -102.3858 297° West 423 487 36,000  Level Albuquerque Center
Sat 08:12:35 AM 34.7303 -102.5136 297° West 423 487 36,000  Level Albuquerque Center
Sat 08:13:36 AM 34.7939 -102.6600 298° West 421 484 36,000  Level Albuquerque Center
Sat 08:14:36 AM 34.8469 -102.7872 297° West 419 482 36,000  Level Albuquerque Center
Sat 08:15:36 AM 34.8997 -102.9133 297° West 417 480 36,000  Level Albuquerque Center
Sat 08:16:37 AM 34.9528 -103.0408 297° West 417 480 36,000  Level Albuquerque Center
Sat 08:17:37 AM 35.0053 -103.1667 297° West 415 478 36,000  Level Albuquerque Center
Sat 08:18:37 AM 35.0500 -103.2731 297° West 417 480 36,000  Level Albuquerque Center
Sat 08:19:38 AM 35.1019 -103.4000 297° West 416 479 36,000  Level Albuquerque Center
Sat 08:20:38 AM 35.1544 -103.5261 297° West 414 476 36,000  Level Albuquerque Center
Sat 08:21:38 AM 35.2028 -103.6558 295° West 416 479 36,000  Level Albuquerque Center
Sat 08:22:39 AM 35.2439 -103.7908 290° West 420 483 36,000  Level Albuquerque Center
Sat 08:23:39 AM 35.2917 -103.9417 291° West 420 483 36,000  Level Albuquerque Center
Sat 08:24:39 AM 35.3344 -104.0772 291° West 426 490 36,000  Level Albuquerque Center
Sat 08:25:40 AM 35.3783 -104.2181 291° West 432 497 36,000  Level Albuquerque Center
Sat 08:26:40 AM 35.4192 -104.3556 290° West 433 498 36,000  Level Albuquerque Center
Sat 08:27:40 AM 35.4628 -104.4956 291° West 436 502 36,000  Level Albuquerque Center
Sat 08:28:41 AM 35.5067 -104.6378 291° West 441 507 36,000  Level Albuquerque Center
Sat 08:29:41 AM 35.5503 -104.7800 291° West 442 509 36,000  Level Albuquerque Center
Sat 08:30:42 AM 35.5936 -104.9244 290° West 447 514 36,000  Level Albuquerque Center
Sat 08:31:42 AM 35.6372 -105.0686 290° West 446 513 36,000  Level Albuquerque Center
Sat 08:32:42 AM 35.6839 -105.2100 292° West 444 511 36,000  Level Albuquerque Center
Sat 08:33:43 AM 35.7397 -105.3483 296° West 446 513 36,000  Level Albuquerque Center
Sat 08:34:43 AM 35.7939 -105.4872 296° West 447 514 36,000  Level Albuquerque Center
Sat 08:35:44 AM 35.8447 -105.6217 295° West 447 514 36,000  Level Albuquerque Center
Sat 08:36:44 AM 35.8969 -105.7592 295° West 446 513 36,000  Level Albuquerque Center
Sat 08:37:45 AM 35.9497 -105.8997 295° West 451 519 36,000  Level Albuquerque Center
Sat 08:38:45 AM 36.0025 -106.0386 295° West 450 518 36,000  Level Albuquerque Center
Sat 08:39:46 AM 36.0533 -106.1767 295° West 446 513 36,000  Level Albuquerque Center
Sat 08:40:46 AM 36.1067 -106.3183 295° West 454 522 36,000  Level Albuquerque Center
Sat 08:41:47 AM 36.1583 -106.4575 295° West 451 519 36,000  Level Albuquerque Center
Sat 08:42:47 AM 36.2081 -106.5919 295° West 451 519 36,000  Level Albuquerque Center
Sat 08:43:47 AM 36.2661 -106.7489 295° West 449 517 36,000  Level Albuquerque Center
Sat 08:44:48 AM 36.3150 -106.8842 294° West 450 518 36,000  Level Albuquerque Center
Sat 08:45:48 AM 36.3647 -107.0192 295° West 450 518 36,000  Level Albuquerque Center
Sat 08:46:36 AM 36.4053 -107.1306 294° West 449 517 36,000  Level Denver Center
Sat 08:47:37 AM 36.4622 -107.2875 294° West 448 516 36,000  Level Denver Center
Sat 08:48:38 AM 36.5086 -107.4211 293° West 443 510 36,000  Level Denver Center
Sat 08:49:38 AM 36.5572 -107.5553 294° West 447 514 36,000  Level Denver Center
Sat 08:50:39 AM 36.6125 -107.7119 294° West 443 510 36,000  Level Denver Center
Sat 08:51:39 AM 36.6619 -107.8481 294° West 449 517 36,000  Level Denver Center
Sat 08:52:40 AM 36.7097 -107.9817 294° West 445 512 36,000  Level Denver Center
Sat 08:53:41 AM 36.7636 -108.1378 293° West 442 509 36,000  Level Denver Center
Sat 08:54:41 AM 36.8108 -108.2717 294° West 441 507 36,000  Level Denver Center
Sat 08:55:42 AM 36.8578 -108.4047 294° West 439 505 36,000  Level Denver Center
Sat 08:56:42 AM 36.9119 -108.5594 294° West 438 504 36,000  Level Denver Center
Sat 08:57:43 AM 36.9583 -108.6908 294° West 435 501 36,000  Level Denver Center
Sat 08:58:44 AM 37.0047 -108.8258 293° West 440 506 36,000  Level Denver Center
Sat 08:59:44 AM 37.0592 -108.9825 294° West 440 506 36,000  Level Denver Center
Sat 09:00:45 AM 37.1058 -109.1164 294° West 440 506 36,000  Level Denver Center
Sat 09:01:45 AM 37.1522 -109.2489 294° West 436 502 36,000  Level Denver Center
Sat 09:02:46 AM 37.2050 -109.4047 293° West 435 501 36,000  Level Denver Center
Sat 09:03:47 AM 37.2497 -109.5378 293° West 435 501 36,000  Level Denver Center
Sat 09:04:47 AM 37.2936 -109.6722 292° West 436 502 36,000  Level Denver Center
Sat 09:05:48 AM 37.3469 -109.8256 294° West 431 496 36,000  Level Denver Center
Sat 09:06:49 AM 37.3911 -109.9600 292° West 436 502 36,000  Level Denver Center
Sat 09:07:49 AM 37.4364 -110.0903 294° West 426 490 36,000  Level Denver Center
Sat 09:08:50 AM 37.4878 -110.2472 292° West 433 498 36,000  Level Denver Center
Sat 09:09:51 AM 37.5314 -110.3811 292° West 431 496 36,000  Level Denver Center
Sat 09:10:51 AM 37.5758 -110.5139 293° West 431 496 36,000  Level Denver Center
Sat 09:11:52 AM 37.6183 -110.6475 292° West 433 498 36,000  Level Denver Center
Sat 09:12:52 AM 37.6733 -110.8147 293° West 433 498 36,000  Level Denver Center
Sat 09:13:53 AM 37.7194 -110.9544 293° West 433 498 36,000  Level Denver Center
Sat 09:14:54 AM 37.7644 -111.0942 292° West 432 497 36,000  Level Denver Center
Sat 09:15:54 AM 37.8097 -111.2342 292° West 432 497 36,000  Level Denver Center
Sat 09:16:42 AM 37.8450 -111.3464 292° West 432 497 36,000  Level Salt Lake Center
Sat 09:17:43 AM 37.8903 -111.4872 292° West 434 499 36,000  Level Salt Lake Center
Sat 09:18:43 AM 37.9356 -111.6278 292° West 434 499 36,000  Level Salt Lake Center
Sat 09:19:44 AM 37.9786 -111.7667 292° West 429 494 36,000  Level Salt Lake Center
Sat 09:20:45 AM 38.0225 -111.9083 292° West 431 496 36,000  Level Salt Lake Center
Sat 09:21:45 AM 38.0669 -112.0472 292° West 431 496 36,000  Level Salt Lake Center
Sat 09:22:46 AM 38.1103 -112.1875 291° West 429 494 36,000  Level Salt Lake Center
Sat 09:23:47 AM 38.1533 -112.3272 291° West 428 493 36,000  Level Salt Lake Center
Sat 09:24:48 AM 38.1956 -112.4650 291° West 424 488 36,000  Level Salt Lake Center
Sat 09:25:48 AM 38.2383 -112.6033 292° West 424 488 36,000  Level Salt Lake Center
Sat 09:26:49 AM 38.2797 -112.7428 291° West 425 489 36,000  Level Salt Lake Center
Sat 09:27:50 AM 38.3303 -112.9086 291° West 422 486 36,000  Level Salt Lake Center
Sat 09:28:50 AM 38.3561 -113.0525 283° West 426 490 36,000  Level Salt Lake Center
Sat 09:29:51 AM 38.3472 -113.2061 266° West 435 501 36,000  Level Salt Lake Center
Sat 09:30:52 AM 38.3356 -113.3594 265° West 439 505 36,000  Level Salt Lake Center
Sat 09:31:52 AM 38.3233 -113.5125 264° West 438 504 36,000  Level Salt Lake Center
Sat 09:32:53 AM 38.3103 -113.6653 264° West 437 503 36,000  Level Salt Lake Center
Sat 09:33:54 AM 38.2983 -113.8194 264° West 439 505 36,000  Level Salt Lake Center
Sat 09:34:55 AM 38.2861 -113.9733 264° West 440 506 36,000  Level Salt Lake Center
Sat 09:35:55 AM 38.2736 -114.1278 264° West 441 507 36,000  Level Salt Lake Center
Sat 09:36:56 AM 38.2603 -114.2819 264° West 441 507 36,000  Level Salt Lake Center
Sat 09:37:57 AM 38.2467 -114.4358 264° West 441 507 36,000  Level Salt Lake Center
Sat 09:38:58 AM 38.2389 -114.5914 266° West 443 510 36,000  Level Salt Lake Center
Sat 09:39:58 AM 38.2289 -114.7478 265° West 444 511 36,000  Level Salt Lake Center
Sat 09:40:59 AM 38.2172 -114.9372 266° West 449 517 36,000  Level Salt Lake Center
Sat 09:42:00 AM 38.2075 -115.0972 266° West 453 521 36,000  Level Salt Lake Center
Sat 09:43:01 AM 38.1964 -115.2586 265° West 459 528 36,000  Level Salt Lake Center
Sat 09:44:02 AM 38.1861 -115.4061 265° West 455 524 36,000  Level Salt Lake Center
Sat 09:45:03 AM 38.1764 -115.5658 266° West 454 522 36,000  Level Salt Lake Center
Sat 09:46:04 AM 38.1644 -115.7269 265° West 457 526 36,000  Level Salt Lake Center
Sat 09:47:04 AM 38.1528 -115.8856 265° West 452 520 36,000  Level Salt Lake Center
Sat 09:48:05 AM 38.1417 -116.0442 265° West 451 519 36,000  Level Salt Lake Center
Sat 09:49:06 AM 38.1306 -116.2036 265° West 452 520 36,000  Level Salt Lake Center
Sat 09:50:07 AM 38.1175 -116.3631 264° West 454 522 36,000  Level Salt Lake Center
Sat 09:51:08 AM 38.1031 -116.5531 265° West 450 518 36,000  Level Salt Lake Center
Sat 09:52:09 AM 38.0908 -116.7108 264° West 449 517 36,000  Level Salt Lake Center
Sat 09:53:10 AM 38.0783 -116.8689 264° West 449 517 36,000  Level Salt Lake Center
Sat 09:54:11 AM 38.0661 -117.0275 264° West 447 514 36,000  Level Salt Lake Center
Sat 09:55:12 AM 38.0514 -117.1900 263° West 450 518 36,000  Level Salt Lake Center
Sat 09:56:13 AM 38.0389 -117.3533 264° West 452 520 36,000  Level Salt Lake Center
Sat 09:57:14 AM 38.0261 -117.5108 264° West 448 516 36,000  Level Salt Lake Center
Sat 09:58:15 AM 38.0128 -117.6672 264° West 446 513 36,000  Level Salt Lake Center
Sat 09:59:22 AM 37.9983 -117.8239 263° West 445 512 36,000  Level Oakland Center
Sat 10:00:23 AM 37.9811 -117.9792 262° West 445 512 36,000  Level Oakland Center
Sat 10:01:23 AM 37.9653 -118.1344 263° West 444 511 36,000  Level Oakland Center
Sat 10:02:24 AM 37.9478 -118.2897 262° West 444 511 36,000  Level Oakland Center
Sat 10:03:25 AM 37.9314 -118.4439 262° West 442 509 36,000  Level Oakland Center
Sat 10:04:25 AM 37.9142 -118.5983 262° West 443 510 36,000  Level Oakland Center
Sat 10:05:26 AM 37.8975 -118.7511 262° West 441 507 36,000  Level Oakland Center
Sat 10:06:27 AM 37.8806 -118.9042 262° West 438 504 36,000  Level Oakland Center
Sat 10:07:28 AM 37.8594 -119.0836 262° West 440 506 36,000  Level Oakland Center
Sat 10:08:28 AM 37.8411 -119.2358 261° West 440 506 36,000  Level Oakland Center
Sat 10:09:29 AM 37.8244 -119.3883 262° West 438 504 36,000  Level Oakland Center
Sat 10:10:30 AM 37.8075 -119.5400 262° West 437 503 36,000  Level Oakland Center
Sat 10:11:31 AM 37.7897 -119.6908 262° West 435 501 36,000  Level Oakland Center
Sat 10:12:31 AM 37.7697 -119.8458 261° West 438 504 36,000  Level Oakland Center
Sat 10:13:32 AM 37.7503 -119.9972 261° West 438 504 36,000  Level Oakland Center
Sat 10:14:33 AM 37.7319 -120.1497 261° West 437 503 36,000 -246 Level Oakland Center
Sat 10:15:34 AM 37.7119 -120.3014 261° West 437 503 35,500 -1,623 Descending Oakland Center
Sat 10:16:35 AM 37.6931 -120.4594 261° West 451 519 32,700 -2,926 Descending Oakland Center
Sat 10:17:35 AM 37.6728 -120.6161 261° West 451 519 29,600 -3,149 Descending Oakland Center
Sat 10:18:16 AM 37.6500 -120.7333 256° West 444 511 27,400 -3,208 Descending Northern Cal TRACON
Sat 10:19:16 AM 37.6333 -120.8833 262° West 433 498 24,200 -3,050 Descending Northern Cal TRACON
Sat 10:20:16 AM 37.6167 -121.0333 262° West 424 488 21,300 -2,900 Descending Northern Cal TRACON
Sat 10:21:16 AM 37.6000 -121.1667 261° West 412 474 18,400 -2,950 Descending Northern Cal TRACON
Sat 10:22:16 AM 37.5833 -121.3000 261° West 398 458 15,400 -3,000 Descending Northern Cal TRACON
Sat 10:23:10 AM 37.5833 -121.4167 270° West 383 441 12,700 -2,368 Descending Northern Cal TRACON
Sat 10:24:10 AM 37.5667 -121.5500 261° West 352 405 10,900 -850 Descending Northern Cal TRACON
Sat 10:25:10 AM 37.5667 -121.6500 270° West 277 319 11,000 -400 Climbing Northern Cal TRACON
Sat 10:26:10 AM 37.6000 -121.7167 302° West 257 296 10,100 -947 Descending Northern Cal TRACON
Sat 10:27:04 AM 37.5667 -121.7667 230° Southwest 245 282 9,200 -1,000 Descending Northern Cal TRACON
Sat 10:27:58 AM 37.5000 -121.8167 211° Southwest 245 282 8,300 -632 Descending Northern Cal TRACON
Sat 10:28:58 AM 37.4833 -121.8833 253° West 244 281 8,000 -450 Descending Northern Cal TRACON
Sat 10:29:58 AM 37.4667 -121.9667 256° West 224 258 7,400 -1,000 Descending Northern Cal TRACON
Sat 10:30:52 AM 37.4667 -122.0333 270° West 213 245 6,100 -1,053 Descending Northern Cal TRACON
Sat 10:31:52 AM 37.5000 -122.0833 310° West 206 237 5,400 -1,179 Descending Northern Cal TRACON
Sat 10:32:49 AM 37.5211 -122.1400 295° West 203 234 3,800 -1,373 Descending Oakland Center
Sat 10:33:50 AM 37.5464 -122.2000 298° West 199 229 2,700 -934 Descending Oakland Center
Sat 10:34:51 AM 37.5686 -122.2514 299° West 183 211 1,900 -787 Descending Oakland Center

Login

Don't have an account? Register now (free) for customized features, flight alerts, and more!